sensor_id;sensor_type;location;lat;lon;timestamp;P1;durP1;ratioP1;P2;durP2;ratioP2
23117;SDS011;11728;50.624;6.014;2022-12-18T00:01:38;6.35;;;3.13;;
23117;SDS011;11728;50.624;6.014;2022-12-18T00:06:38;6.22;;;2.30;;
23117;SDS011;11728;50.624;6.014;2022-12-18T00:11:39;12.10;;;6.75;;
23117;SDS011;11728;50.624;6.014;2022-12-18T00:16:39;3.30;;;1.70;;
23117;SDS011;11728;50.624;6.014;2022-12-18T00:21:43;5.38;;;2.00;;
23117;SDS011;11728;50.624;6.014;2022-12-18T00:26:44;5.50;;;2.50;;
23117;SDS011;11728;50.624;6.014;2022-12-18T00:31:45;4.43;;;2.05;;
23117;SDS011;11728;50.624;6.014;2022-12-18T00:36:47;5.10;;;2.00;;
23117;SDS011;11728;50.624;6.014;2022-12-18T00:41:47;4.35;;;2.10;;
23117;SDS011;11728;50.624;6.014;2022-12-18T00:47:06;2.65;;;1.30;;
23117;SDS011;11728;50.624;6.014;2022-12-18T00:52:07;3.17;;;1.30;;
23117;SDS011;11728;50.624;6.014;2022-12-18T00:57:07;2.63;;;1.45;;
23117;SDS011;11728;50.624;6.014;2022-12-18T01:02:09;2.33;;;1.25;;
23117;SDS011;11728;50.624;6.014;2022-12-18T01:07:10;3.63;;;1.25;;
23117;SDS011;11728;50.624;6.014;2022-12-18T01:12:11;2.25;;;1.20;;
23117;SDS011;11728;50.624;6.014;2022-12-18T01:17:11;2.63;;;1.33;;
23117;SDS011;11728;50.624;6.014;2022-12-18T01:22:12;4.05;;;1.70;;
23117;SDS011;11728;50.624;6.014;2022-12-18T01:27:12;2.33;;;1.17;;
23117;SDS011;11728;50.624;6.014;2022-12-18T01:32:13;3.50;;;1.45;;
23117;SDS011;11728;50.624;6.014;2022-12-18T01:37:15;2.28;;;0.85;;
23117;SDS011;11728;50.624;6.014;2022-12-18T01:42:15;2.33;;;1.17;;
23117;SDS011;11728;50.624;6.014;2022-12-18T01:47:18;1.77;;;0.85;;
23117;SDS011;11728;50.624;6.014;2022-12-18T01:52:22;1.67;;;0.95;;
23117;SDS011;11728;50.624;6.014;2022-12-18T01:57:26;1.92;;;0.90;;
23117;SDS011;11728;50.624;6.014;2022-12-18T02:02:28;1.90;;;1.20;;
23117;SDS011;11728;50.624;6.014;2022-12-18T02:07:45;1.60;;;0.90;;
23117;SDS011;11728;50.624;6.014;2022-12-18T02:13:20;1.85;;;0.93;;
23117;SDS011;11728;50.624;6.014;2022-12-18T02:18:32;2.53;;;1.08;;
23117;SDS011;11728;50.624;6.014;2022-12-18T02:28:43;2.15;;;1.23;;
23117;SDS011;11728;50.624;6.014;2022-12-18T02:33:47;2.28;;;1.15;;
23117;SDS011;11728;50.624;6.014;2022-12-18T02:38:50;2.40;;;1.05;;
23117;SDS011;11728;50.624;6.014;2022-12-18T02:43:53;2.95;;;1.05;;
23117;SDS011;11728;50.624;6.014;2022-12-18T02:49:00;1.75;;;0.90;;
23117;SDS011;11728;50.624;6.014;2022-12-18T02:54:10;2.08;;;1.08;;
23117;SDS011;11728;50.624;6.014;2022-12-18T02:59:39;2.30;;;1.20;;
23117;SDS011;11728;50.624;6.014;2022-12-18T03:04:54;1.77;;;0.90;;
23117;SDS011;11728;50.624;6.014;2022-12-18T03:10:18;1.77;;;1.03;;
23117;SDS011;11728;50.624;6.014;2022-12-18T03:15:43;2.78;;;1.20;;
23117;SDS011;11728;50.624;6.014;2022-12-18T03:20:48;2.33;;;1.27;;
23117;SDS011;11728;50.624;6.014;2022-12-18T03:25:55;3.88;;;1.20;;
23117;SDS011;11728;50.624;6.014;2022-12-18T03:31:00;2.17;;;1.10;;
23117;SDS011;11728;50.624;6.014;2022-12-18T03:36:03;2.92;;;1.20;;
23117;SDS011;11728;50.624;6.014;2022-12-18T03:51:57;2.42;;;1.30;;
23117;SDS011;11728;50.624;6.014;2022-12-18T03:57:05;3.25;;;1.27;;
23117;SDS011;11728;50.624;6.014;2022-12-18T04:02:10;2.13;;;1.30;;
23117;SDS011;11728;50.624;6.014;2022-12-18T04:07:12;2.95;;;1.50;;
23117;SDS011;11728;50.624;6.014;2022-12-18T04:12:15;2.35;;;1.10;;
23117;SDS011;11728;50.624;6.014;2022-12-18T04:17:18;2.70;;;1.17;;
23117;SDS011;11728;50.624;6.014;2022-12-18T04:22:18;2.72;;;1.13;;
23117;SDS011;11728;50.624;6.014;2022-12-18T04:27:24;2.72;;;1.30;;
23117;SDS011;11728;50.624;6.014;2022-12-18T04:32:25;3.03;;;1.23;;
23117;SDS011;11728;50.624;6.014;2022-12-18T04:37:25;1.60;;;0.98;;
23117;SDS011;11728;50.624;6.014;2022-12-18T04:42:26;2.53;;;1.35;;
23117;SDS011;11728;50.624;6.014;2022-12-18T04:47:27;2.20;;;1.20;;
23117;SDS011;11728;50.624;6.014;2022-12-18T04:52:27;2.30;;;1.13;;
23117;SDS011;11728;50.624;6.014;2022-12-18T04:57:27;3.65;;;1.50;;
23117;SDS011;11728;50.624;6.014;2022-12-18T05:02:28;3.08;;;1.45;;
23117;SDS011;11728;50.624;6.014;2022-12-18T05:07:28;2.92;;;1.52;;
23117;SDS011;11728;50.624;6.014;2022-12-18T05:12:30;4.40;;;1.80;;
23117;SDS011;11728;50.624;6.014;2022-12-18T05:17:31;4.47;;;2.40;;
23117;SDS011;11728;50.624;6.014;2022-12-18T05:22:31;3.85;;;2.15;;
23117;SDS011;11728;50.624;6.014;2022-12-18T05:27:32;3.28;;;1.90;;
23117;SDS011;11728;50.624;6.014;2022-12-18T05:32:32;4.15;;;1.90;;
23117;SDS011;11728;50.624;6.014;2022-12-18T05:37:33;3.50;;;1.90;;
23117;SDS011;11728;50.624;6.014;2022-12-18T05:42:33;2.22;;;1.42;;
23117;SDS011;11728;50.624;6.014;2022-12-18T05:47:34;4.43;;;1.40;;
23117;SDS011;11728;50.624;6.014;2022-12-18T05:52:35;2.45;;;1.30;;
23117;SDS011;11728;50.624;6.014;2022-12-18T05:57:35;4.38;;;1.45;;
23117;SDS011;11728;50.624;6.014;2022-12-18T06:02:35;3.55;;;1.77;;
23117;SDS011;11728;50.624;6.014;2022-12-18T06:07:36;3.60;;;1.38;;
23117;SDS011;11728;50.624;6.014;2022-12-18T06:12:37;1.90;;;1.23;;
23117;SDS011;11728;50.624;6.014;2022-12-18T06:17:38;1.98;;;1.13;;
23117;SDS011;11728;50.624;6.014;2022-12-18T06:22:38;3.08;;;1.20;;
23117;SDS011;11728;50.624;6.014;2022-12-18T06:27:39;5.00;;;1.30;;
23117;SDS011;11728;50.624;6.014;2022-12-18T06:32:39;2.97;;;1.55;;
23117;SDS011;11728;50.624;6.014;2022-12-18T06:37:40;2.65;;;1.40;;
23117;SDS011;11728;50.624;6.014;2022-12-18T06:42:40;2.95;;;1.42;;
23117;SDS011;11728;50.624;6.014;2022-12-18T06:47:40;2.97;;;1.48;;
23117;SDS011;11728;50.624;6.014;2022-12-18T06:52:41;3.60;;;1.77;;
23117;SDS011;11728;50.624;6.014;2022-12-18T06:57:43;2.90;;;1.65;;
23117;SDS011;11728;50.624;6.014;2022-12-18T07:02:44;3.47;;;1.92;;
23117;SDS011;11728;50.624;6.014;2022-12-18T07:07:45;2.83;;;1.60;;
23117;SDS011;11728;50.624;6.014;2022-12-18T07:12:45;4.65;;;1.77;;
23117;SDS011;11728;50.624;6.014;2022-12-18T07:17:45;3.25;;;1.50;;
23117;SDS011;11728;50.624;6.014;2022-12-18T07:22:46;3.15;;;1.80;;
23117;SDS011;11728;50.624;6.014;2022-12-18T07:27:49;5.45;;;2.00;;
23117;SDS011;11728;50.624;6.014;2022-12-18T07:32:49;3.95;;;2.00;;
23117;SDS011;11728;50.624;6.014;2022-12-18T07:37:50;4.22;;;2.22;;
23117;SDS011;11728;50.624;6.014;2022-12-18T07:42:50;3.13;;;1.70;;
23117;SDS011;11728;50.624;6.014;2022-12-18T07:47:51;3.20;;;1.70;;
23117;SDS011;11728;50.624;6.014;2022-12-18T07:52:51;3.83;;;1.90;;
23117;SDS011;11728;50.624;6.014;2022-12-18T07:57:52;3.70;;;1.85;;
23117;SDS011;11728;50.624;6.014;2022-12-18T08:02:52;3.58;;;1.80;;
23117;SDS011;11728;50.624;6.014;2022-12-18T08:07:53;3.55;;;1.75;;
23117;SDS011;11728;50.624;6.014;2022-12-18T08:12:54;3.45;;;2.05;;
23117;SDS011;11728;50.624;6.014;2022-12-18T08:17:57;3.95;;;2.30;;
23117;SDS011;11728;50.624;6.014;2022-12-18T08:22:58;4.03;;;2.35;;
23117;SDS011;11728;50.624;6.014;2022-12-18T08:27:58;4.20;;;2.38;;
23117;SDS011;11728;50.624;6.014;2022-12-18T08:32:59;4.03;;;2.20;;
23117;SDS011;11728;50.624;6.014;2022-12-18T08:37:59;4.43;;;2.30;;
23117;SDS011;11728;50.624;6.014;2022-12-18T08:43:00;3.97;;;2.08;;
23117;SDS011;11728;50.624;6.014;2022-12-18T08:48:19;6.63;;;2.28;;
23117;SDS011;11728;50.624;6.014;2022-12-18T08:53:19;3.97;;;1.90;;
23117;SDS011;11728;50.624;6.014;2022-12-18T08:58:20;3.05;;;1.80;;
23117;SDS011;11728;50.624;6.014;2022-12-18T09:03:21;3.22;;;1.80;;
23117;SDS011;11728;50.624;6.014;2022-12-18T09:08:22;3.15;;;1.52;;
23117;SDS011;11728;50.624;6.014;2022-12-18T09:13:23;2.75;;;1.45;;
23117;SDS011;11728;50.624;6.014;2022-12-18T09:18:24;3.03;;;1.55;;
23117;SDS011;11728;50.624;6.014;2022-12-18T09:23:25;2.92;;;1.70;;
23117;SDS011;11728;50.624;6.014;2022-12-18T09:28:25;4.97;;;1.70;;
23117;SDS011;11728;50.624;6.014;2022-12-18T09:33:26;3.97;;;2.30;;
23117;SDS011;11728;50.624;6.014;2022-12-18T09:38:26;3.17;;;1.85;;
23117;SDS011;11728;50.624;6.014;2022-12-18T09:43:33;4.20;;;2.33;;
23117;SDS011;11728;50.624;6.014;2022-12-18T09:48:42;5.30;;;2.85;;
23117;SDS011;11728;50.624;6.014;2022-12-18T09:53:47;5.05;;;2.67;;
23117;SDS011;11728;50.624;6.014;2022-12-18T09:58:59;5.82;;;2.80;;
23117;SDS011;11728;50.624;6.014;2022-12-18T10:04:01;4.30;;;2.17;;
23117;SDS011;11728;50.624;6.014;2022-12-18T10:09:05;4.57;;;2.67;;
23117;SDS011;11728;50.624;6.014;2022-12-18T10:14:21;4.53;;;2.50;;
23117;SDS011;11728;50.624;6.014;2022-12-18T10:19:40;3.75;;;1.98;;
23117;SDS011;11728;50.624;6.014;2022-12-18T10:25:37;5.40;;;2.85;;
23117;SDS011;11728;50.624;6.014;2022-12-18T10:30:16;3.58;;;2.20;;
23117;SDS011;11728;50.624;6.014;2022-12-18T10:35:20;4.55;;;2.50;;
23117;SDS011;11728;50.624;6.014;2022-12-18T10:40:23;19.80;;;13.25;;
23117;SDS011;11728;50.624;6.014;2022-12-18T10:45:23;5.18;;;2.90;;
23117;SDS011;11728;50.624;6.014;2022-12-18T10:50:26;11.25;;;6.35;;
23117;SDS011;11728;50.624;6.014;2022-12-18T10:55:39;9.77;;;6.78;;
23117;SDS011;11728;50.624;6.014;2022-12-18T11:00:44;7.35;;;4.50;;
23117;SDS011;11728;50.624;6.014;2022-12-18T11:05:44;8.27;;;4.70;;
23117;SDS011;11728;50.624;6.014;2022-12-18T11:10:45;7.68;;;4.57;;
23117;SDS011;11728;50.624;6.014;2022-12-18T11:15:47;7.00;;;3.97;;
23117;SDS011;11728;50.624;6.014;2022-12-18T11:20:52;6.38;;;3.70;;
23117;SDS011;11728;50.624;6.014;2022-12-18T11:25:59;7.13;;;4.18;;
23117;SDS011;11728;50.624;6.014;2022-12-18T11:31:10;6.78;;;3.72;;
23117;SDS011;11728;50.624;6.014;2022-12-18T11:36:16;8.05;;;4.25;;
23117;SDS011;11728;50.624;6.014;2022-12-18T11:41:21;6.47;;;3.78;;
23117;SDS011;11728;50.624;6.014;2022-12-18T11:52:36;9.98;;;4.25;;
23117;SDS011;11728;50.624;6.014;2022-12-18T12:08:11;7.55;;;4.75;;
23117;SDS011;11728;50.624;6.014;2022-12-18T12:19:01;10.38;;;6.20;;
23117;SDS011;11728;50.624;6.014;2022-12-18T12:29:49;5.65;;;3.05;;
23117;SDS011;11728;50.624;6.014;2022-12-18T12:35:03;7.03;;;4.43;;
23117;SDS011;11728;50.624;6.014;2022-12-18T12:40:27;6.43;;;3.88;;
23117;SDS011;11728;50.624;6.014;2022-12-18T12:50:38;9.63;;;5.70;;
23117;SDS011;11728;50.624;6.014;2022-12-18T12:55:40;10.70;;;6.47;;
23117;SDS011;11728;50.624;6.014;2022-12-18T13:06:02;8.82;;;4.65;;
23117;SDS011;11728;50.624;6.014;2022-12-18T13:11:25;8.60;;;4.75;;
23117;SDS011;11728;50.624;6.014;2022-12-18T13:16:49;7.70;;;4.72;;
23117;SDS011;11728;50.624;6.014;2022-12-18T13:21:54;27.17;;;17.60;;
23117;SDS011;11728;50.624;6.014;2022-12-18T13:26:56;12.45;;;6.70;;
23117;SDS011;11728;50.624;6.014;2022-12-18T13:31:57;6.65;;;4.22;;
23117;SDS011;11728;50.624;6.014;2022-12-18T13:42:41;29.10;;;25.92;;
23117;SDS011;11728;50.624;6.014;2022-12-18T13:48:00;7.38;;;4.53;;
23117;SDS011;11728;50.624;6.014;2022-12-18T13:53:01;8.70;;;6.07;;
23117;SDS011;11728;50.624;6.014;2022-12-18T13:58:06;9.45;;;4.45;;
23117;SDS011;11728;50.624;6.014;2022-12-18T14:03:15;11.27;;;5.30;;
23117;SDS011;11728;50.624;6.014;2022-12-18T14:08:18;6.63;;;4.20;;
23117;SDS011;11728;50.624;6.014;2022-12-18T14:13:32;10.57;;;7.63;;
23117;SDS011;11728;50.624;6.014;2022-12-18T14:19:12;15.60;;;4.88;;
23117;SDS011;11728;50.624;6.014;2022-12-18T14:24:14;7.65;;;4.80;;
23117;SDS011;11728;50.624;6.014;2022-12-18T14:29:25;9.15;;;5.32;;
23117;SDS011;11728;50.624;6.014;2022-12-18T14:34:27;9.45;;;5.30;;
23117;SDS011;11728;50.624;6.014;2022-12-18T14:39:27;8.88;;;5.13;;
23117;SDS011;11728;50.624;6.014;2022-12-18T14:44:28;11.32;;;6.38;;
23117;SDS011;11728;50.624;6.014;2022-12-18T14:49:30;9.80;;;5.82;;
23117;SDS011;11728;50.624;6.014;2022-12-18T14:54:33;8.82;;;5.22;;
23117;SDS011;11728;50.624;6.014;2022-12-18T14:59:35;10.48;;;6.63;;
23117;SDS011;11728;50.624;6.014;2022-12-18T15:04:37;15.57;;;7.93;;
23117;SDS011;11728;50.624;6.014;2022-12-18T15:09:43;9.63;;;5.72;;
23117;SDS011;11728;50.624;6.014;2022-12-18T15:15:01;9.55;;;5.57;;
23117;SDS011;11728;50.624;6.014;2022-12-18T15:20:03;9.18;;;5.57;;
23117;SDS011;11728;50.624;6.014;2022-12-18T15:30:32;15.75;;;8.45;;
23117;SDS011;11728;50.624;6.014;2022-12-18T15:35:32;14.10;;;7.57;;
23117;SDS011;11728;50.624;6.014;2022-12-18T15:40:33;16.08;;;7.05;;
23117;SDS011;11728;50.624;6.014;2022-12-18T15:45:33;12.35;;;6.05;;
23117;SDS011;11728;50.624;6.014;2022-12-18T15:50:34;10.65;;;6.10;;
23117;SDS011;11728;50.624;6.014;2022-12-18T15:55:34;12.30;;;6.90;;
23117;SDS011;11728;50.624;6.014;2022-12-18T16:00:53;11.60;;;7.37;;
23117;SDS011;11728;50.624;6.014;2022-12-18T16:05:57;27.08;;;14.80;;
23117;SDS011;11728;50.624;6.014;2022-12-18T16:11:00;15.05;;;8.82;;
23117;SDS011;11728;50.624;6.014;2022-12-18T16:16:01;17.23;;;9.55;;
23117;SDS011;11728;50.624;6.014;2022-12-18T16:21:01;12.63;;;7.25;;
23117;SDS011;11728;50.624;6.014;2022-12-18T16:26:02;9.35;;;5.38;;
23117;SDS011;11728;50.624;6.014;2022-12-18T16:31:04;12.52;;;7.32;;
23117;SDS011;11728;50.624;6.014;2022-12-18T16:36:05;11.32;;;5.85;;
23117;SDS011;11728;50.624;6.014;2022-12-18T16:41:14;10.23;;;5.72;;
23117;SDS011;11728;50.624;6.014;2022-12-18T16:46:33;11.98;;;6.60;;
23117;SDS011;11728;50.624;6.014;2022-12-18T16:51:34;11.98;;;6.82;;
23117;SDS011;11728;50.624;6.014;2022-12-18T16:56:34;9.32;;;5.72;;
23117;SDS011;11728;50.624;6.014;2022-12-18T17:01:35;12.95;;;6.72;;
23117;SDS011;11728;50.624;6.014;2022-12-18T17:06:40;15.32;;;8.20;;
23117;SDS011;11728;50.624;6.014;2022-12-18T17:11:44;11.48;;;5.85;;
23117;SDS011;11728;50.624;6.014;2022-12-18T17:16:45;9.75;;;6.18;;
23117;SDS011;11728;50.624;6.014;2022-12-18T17:21:47;10.90;;;6.55;;
23117;SDS011;11728;50.624;6.014;2022-12-18T17:26:48;9.85;;;5.55;;
23117;SDS011;11728;50.624;6.014;2022-12-18T17:31:49;11.65;;;6.85;;
23117;SDS011;11728;50.624;6.014;2022-12-18T17:36:49;11.02;;;6.05;;
23117;SDS011;11728;50.624;6.014;2022-12-18T17:41:50;11.35;;;5.65;;
23117;SDS011;11728;50.624;6.014;2022-12-18T17:46:50;12.52;;;6.43;;
23117;SDS011;11728;50.624;6.014;2022-12-18T17:51:51;12.38;;;6.38;;
23117;SDS011;11728;50.624;6.014;2022-12-18T17:56:51;10.27;;;5.55;;
23117;SDS011;11728;50.624;6.014;2022-12-18T18:01:52;10.93;;;5.75;;
23117;SDS011;11728;50.624;6.014;2022-12-18T18:06:52;10.77;;;5.65;;
23117;SDS011;11728;50.624;6.014;2022-12-18T18:11:53;11.18;;;6.32;;
23117;SDS011;11728;50.624;6.014;2022-12-18T18:17:12;13.60;;;6.77;;
23117;SDS011;11728;50.624;6.014;2022-12-18T18:22:15;11.65;;;7.10;;
23117;SDS011;11728;50.624;6.014;2022-12-18T18:27:15;13.70;;;7.95;;
23117;SDS011;11728;50.624;6.014;2022-12-18T18:32:16;14.55;;;8.20;;
23117;SDS011;11728;50.624;6.014;2022-12-18T18:37:16;12.68;;;7.78;;
23117;SDS011;11728;50.624;6.014;2022-12-18T18:42:17;14.63;;;7.75;;
23117;SDS011;11728;50.624;6.014;2022-12-18T18:47:18;13.85;;;7.93;;
23117;SDS011;11728;50.624;6.014;2022-12-18T18:52:19;12.75;;;7.60;;
23117;SDS011;11728;50.624;6.014;2022-12-18T18:57:20;12.70;;;7.68;;
23117;SDS011;11728;50.624;6.014;2022-12-18T19:02:20;15.82;;;7.82;;
23117;SDS011;11728;50.624;6.014;2022-12-18T19:07:21;14.52;;;7.97;;
23117;SDS011;11728;50.624;6.014;2022-12-18T19:12:21;15.82;;;8.20;;
23117;SDS011;11728;50.624;6.014;2022-12-18T19:17:40;15.30;;;8.40;;
23117;SDS011;11728;50.624;6.014;2022-12-18T19:22:41;12.45;;;7.28;;
23117;SDS011;11728;50.624;6.014;2022-12-18T19:27:42;15.15;;;8.90;;
23117;SDS011;11728;50.624;6.014;2022-12-18T19:32:42;14.02;;;8.43;;
23117;SDS011;11728;50.624;6.014;2022-12-18T19:37:43;14.10;;;7.82;;
23117;SDS011;11728;50.624;6.014;2022-12-18T19:42:43;14.57;;;8.70;;
23117;SDS011;11728;50.624;6.014;2022-12-18T19:47:46;14.95;;;8.10;;
23117;SDS011;11728;50.624;6.014;2022-12-18T19:52:46;18.02;;;9.18;;
23117;SDS011;11728;50.624;6.014;2022-12-18T19:57:47;16.17;;;9.40;;
23117;SDS011;11728;50.624;6.014;2022-12-18T20:02:47;16.77;;;9.10;;
23117;SDS011;11728;50.624;6.014;2022-12-18T20:07:48;16.83;;;9.23;;
23117;SDS011;11728;50.624;6.014;2022-12-18T20:12:48;15.50;;;9.45;;
23117;SDS011;11728;50.624;6.014;2022-12-18T20:17:49;16.65;;;9.68;;
23117;SDS011;11728;50.624;6.014;2022-12-18T20:22:50;16.35;;;9.40;;
23117;SDS011;11728;50.624;6.014;2022-12-18T20:27:50;17.52;;;9.18;;
23117;SDS011;11728;50.624;6.014;2022-12-18T20:32:51;20.90;;;10.60;;
23117;SDS011;11728;50.624;6.014;2022-12-18T20:37:51;18.17;;;10.15;;
23117;SDS011;11728;50.624;6.014;2022-12-18T20:42:51;16.10;;;9.70;;
23117;SDS011;11728;50.624;6.014;2022-12-18T20:47:53;18.50;;;10.38;;
23117;SDS011;11728;50.624;6.014;2022-12-18T20:52:54;17.95;;;9.98;;
23117;SDS011;11728;50.624;6.014;2022-12-18T20:57:54;17.27;;;9.98;;
23117;SDS011;11728;50.624;6.014;2022-12-18T21:02:55;17.88;;;10.00;;
23117;SDS011;11728;50.624;6.014;2022-12-18T21:07:55;16.60;;;9.75;;
23117;SDS011;11728;50.624;6.014;2022-12-18T21:12:56;20.83;;;10.80;;
23117;SDS011;11728;50.624;6.014;2022-12-18T21:17:56;20.30;;;10.70;;
23117;SDS011;11728;50.624;6.014;2022-12-18T21:22:56;20.90;;;11.60;;
23117;SDS011;11728;50.624;6.014;2022-12-18T21:28:01;17.63;;;10.82;;
23117;SDS011;11728;50.624;6.014;2022-12-18T21:33:01;19.13;;;10.35;;
23117;SDS011;11728;50.624;6.014;2022-12-18T21:38:02;19.13;;;10.73;;
23117;SDS011;11728;50.624;6.014;2022-12-18T21:43:02;19.40;;;11.07;;
23117;SDS011;11728;50.624;6.014;2022-12-18T21:48:21;14.57;;;7.70;;
23117;SDS011;11728;50.624;6.014;2022-12-18T21:53:22;16.58;;;9.50;;
23117;SDS011;11728;50.624;6.014;2022-12-18T21:58:22;15.82;;;9.43;;
23117;SDS011;11728;50.624;6.014;2022-12-18T22:03:23;15.70;;;9.05;;
23117;SDS011;11728;50.624;6.014;2022-12-18T22:08:24;17.02;;;9.18;;
23117;SDS011;11728;50.624;6.014;2022-12-18T22:13:25;15.18;;;8.63;;
23117;SDS011;11728;50.624;6.014;2022-12-18T22:18:25;12.50;;;7.38;;
23117;SDS011;11728;50.624;6.014;2022-12-18T22:23:26;15.05;;;8.27;;
23117;SDS011;11728;50.624;6.014;2022-12-18T22:28:27;14.13;;;7.88;;
23117;SDS011;11728;50.624;6.014;2022-12-18T22:33:46;15.68;;;8.98;;
23117;SDS011;11728;50.624;6.014;2022-12-18T22:38:47;13.35;;;7.45;;
23117;SDS011;11728;50.624;6.014;2022-12-18T22:43:47;15.85;;;8.73;;
23117;SDS011;11728;50.624;6.014;2022-12-18T22:48:48;14.25;;;8.40;;
23117;SDS011;11728;50.624;6.014;2022-12-18T22:53:49;16.30;;;8.85;;
23117;SDS011;11728;50.624;6.014;2022-12-18T22:58:51;13.55;;;8.23;;
23117;SDS011;11728;50.624;6.014;2022-12-18T23:03:52;15.32;;;8.40;;
23117;SDS011;11728;50.624;6.014;2022-12-18T23:08:56;14.90;;;8.85;;
23117;SDS011;11728;50.624;6.014;2022-12-18T23:13:57;17.08;;;9.93;;
23117;SDS011;11728;50.624;6.014;2022-12-18T23:18:57;18.50;;;9.65;;
23117;SDS011;11728;50.624;6.014;2022-12-18T23:23:58;17.30;;;8.88;;
23117;SDS011;11728;50.624;6.014;2022-12-18T23:28:59;21.02;;;10.32;;
23117;SDS011;11728;50.624;6.014;2022-12-18T23:34:01;20.30;;;9.55;;
23117;SDS011;11728;50.624;6.014;2022-12-18T23:39:02;18.92;;;10.90;;
23117;SDS011;11728;50.624;6.014;2022-12-18T23:44:03;18.42;;;11.00;;
23117;SDS011;11728;50.624;6.014;2022-12-18T23:49:04;17.73;;;10.13;;
23117;SDS011;11728;50.624;6.014;2022-12-18T23:54:05;20.17;;;11.05;;
23117;SDS011;11728;50.624;6.014;2022-12-18T23:59:05;16.00;;;9.18;;
